Time;durP1;ratioP1;P1;durP2;ratioP2;P2;SDS_P1;SDS_P2;PMS_P1;PMS_P2;Temp;Humidity;BMP_temperature;BMP_pressure;BME280_temperature;BME280_humidity;BME280_pressure;Samples;Min_cycle;Max_cycle;Signal;HPM_P1;HPM_P2
2023/08/10 00:00:12;;;;;;;2.80;2.00;;;14.00;99.90;;;13.69;100.00;97623.91;5034564;28;20041;-37
2023/08/10 00:02:44;;;;;;;2.25;1.90;;;13.90;99.90;;;13.69;100.00;97629.19;5028592;28;20057;-37
2023/08/10 00:05:11;;;;;;;2.80;1.92;;;14.00;99.90;;;13.70;100.00;97628.28;5032067;28;20461;-37
2023/08/10 00:07:37;;;;;;;4.32;1.80;;;14.00;99.90;;;13.69;100.00;97627.44;5037791;28;20457;-37
2023/08/10 00:10:08;;;;;;;1.73;1.63;;;14.00;99.90;;;13.65;100.00;97630.28;5034765;28;20129;-37
2023/08/10 00:12:35;;;;;;;2.33;1.80;;;13.90;99.90;;;13.59;100.00;97635.88;5033692;28;20064;-37
2023/08/10 00:15:01;;;;;;;2.10;1.85;;;13.90;99.90;;;13.49;100.00;97638.91;5034491;28;20044;-37
2023/08/10 00:17:26;;;;;;;2.00;1.90;;;13.80;99.90;;;13.41;100.00;97630.47;5030298;28;20025;-37
2023/08/10 00:19:52;;;;;;;2.75;1.95;;;13.70;99.90;;;13.34;100.00;97621.06;5036510;28;20037;-37
2023/08/10 00:22:18;;;;;;;2.45;2.10;;;13.60;99.90;;;13.25;100.00;97626.75;5031181;28;20051;-37
2023/08/10 00:24:43;;;;;;;3.58;2.13;;;13.50;99.90;;;13.14;100.00;97614.84;5029340;28;20033;-38
2023/08/10 00:27:09;;;;;;;2.58;2.05;;;13.50;99.90;;;13.06;100.00;97618.75;5027756;28;20116;-37
2023/08/10 00:29:35;;;;;;;1.77;1.63;;;13.40;99.90;;;12.97;100.00;97612.06;5035171;28;20029;-37
2023/08/10 00:32:01;;;;;;;2.00;1.50;;;13.30;99.90;;;12.81;100.00;97601.25;5029173;28;20048;-37
2023/08/10 00:34:26;;;;;;;2.05;1.60;;;13.20;99.90;;;12.73;100.00;97606.88;5026975;28;20029;-37
2023/08/10 00:36:52;;;;;;;2.10;1.90;;;13.10;99.90;;;12.73;100.00;97619.25;5028169;28;20295;-37
2023/08/10 00:39:18;;;;;;;2.53;1.88;;;13.10;99.90;;;12.60;100.00;97608.34;5027418;28;20485;-37
2023/08/10 00:41:44;;;;;;;2.05;1.63;;;13.00;99.90;;;12.59;100.00;97612.75;5041753;28;20122;-37
2023/08/10 00:44:10;;;;;;;1.90;1.70;;;12.90;99.90;;;12.52;100.00;97615.72;5026612;28;20021;-37
2023/08/10 00:46:36;;;;;;;2.60;1.90;;;12.90;99.90;;;12.46;100.00;97618.63;5026230;28;20033;-37
2023/08/10 00:49:03;;;;;;;2.03;1.70;;;12.80;99.90;;;12.40;100.00;97631.19;5026057;28;20060;-37
2023/08/10 00:51:29;;;;;;;2.10;1.77;;;12.70;99.90;;;12.30;100.00;97613.94;5027728;28;20409;-37
2023/08/10 00:53:55;;;;;;;3.00;2.20;;;12.70;99.90;;;12.32;100.00;97627.97;5025947;28;20402;-37
2023/08/10 00:56:21;;;;;;;2.33;2.08;;;12.60;99.90;;;12.28;100.00;97625.53;5024914;28;20036;-37
2023/08/10 00:58:49;;;;;;;2.00;1.77;;;12.60;99.90;;;12.24;100.00;97619.50;5020566;28;20039;-37
2023/08/10 01:01:15;;;;;;;3.40;1.90;;;12.50;99.90;;;12.08;100.00;97611.31;5023888;28;20032;-37
2023/08/10 01:03:40;;;;;;;2.28;1.98;;;12.50;99.90;;;12.13;100.00;97624.34;5029936;28;20389;-37
2023/08/10 01:06:23;;;;;;;2.25;1.90;;;12.50;99.90;;;12.10;100.00;97627.97;5036014;28;20116;-37
2023/08/10 01:09:11;;;;;;;;;;;12.40;99.90;;;12.03;100.00;97618.56;5046963;28;20344;-37
2023/08/10 01:11:48;;;;;;;2.92;2.08;;;12.40;99.90;;;12.03;100.00;97623.84;5031829;28;20338;-37
2023/08/10 01:14:35;;;;;;;2.40;2.20;;;12.30;99.90;;;11.98;100.00;97623.16;5021312;28;20025;-37
2023/08/10 01:17:03;;;;;;;2.97;2.22;;;12.30;99.90;;;11.95;100.00;97629.44;5031261;28;20412;-37
2023/08/10 01:19:38;;;;;;;4.55;2.05;;;12.30;99.90;;;11.92;100.00;97620.78;5032030;28;20025;-37
2023/08/10 01:22:28;;;;;;;3.20;2.38;;;12.30;99.90;;;11.72;100.00;97590.66;5031616;28;20373;-37
2023/08/10 01:25:06;;;;;;;3.38;2.38;;;12.20;99.90;;;11.87;100.00;97627.97;5035224;28;20025;-37
2023/08/10 01:27:34;;;;;;;2.58;2.10;;;12.20;99.90;;;11.84;100.00;97626.28;5029852;28;20025;-37
2023/08/10 01:30:01;;;;;;;5.03;2.90;;;12.20;99.90;;;11.79;100.00;97626.50;5031164;28;20032;-37
2023/08/10 01:32:29;;;;;;;2.55;2.35;;;12.20;99.90;;;11.77;100.00;97625.69;5029181;28;20060;-37
2023/08/10 01:34:56;;;;;;;2.55;2.35;;;12.10;99.90;;;11.71;100.00;97622.41;5030897;28;20025;-37
2023/08/10 01:37:22;;;;;;;2.90;2.63;;;12.10;99.90;;;11.75;100.00;97618.72;5030982;28;20781;-37
2023/08/10 01:39:48;;;;;;;3.03;2.30;;;12.10;99.90;;;11.75;100.00;97626.66;5035588;28;20098;-37
2023/08/10 01:42:14;;;;;;;2.88;2.45;;;12.10;99.90;;;11.70;100.00;97612.75;5029431;28;20035;-37
2023/08/10 01:44:40;;;;;;;4.00;2.13;;;12.10;99.90;;;11.73;100.00;97620.56;5026336;28;20041;-37
2023/08/10 01:47:15;;;;;;;3.70;2.33;;;12.10;99.90;;;11.73;100.00;97626.72;5027719;28;20118;-37
2023/08/10 01:49:43;;;;;;;2.70;2.50;;;12.10;99.90;;;11.70;100.00;97620.69;5023626;28;20024;-37
2023/08/10 01:52:11;;;;;;;3.75;2.40;;;12.10;99.90;;;11.70;100.00;97618.03;5022960;28;20466;-37
2023/08/10 01:54:39;;;;;;;3.28;2.72;;;12.00;99.90;;;11.68;100.00;97614.59;5023983;28;20025;-37
2023/08/10 01:57:05;;;;;;;3.25;2.00;;;12.00;99.90;;;11.69;100.00;97630.41;5028600;28;20676;-37
2023/08/10 01:59:31;;;;;;;2.97;2.30;;;12.00;99.90;;;11.68;100.00;97627.81;5027969;28;20489;-37
2023/08/10 02:01:57;;;;;;;3.38;2.55;;;12.00;99.90;;;11.66;100.00;97630.50;5021432;28;20041;-37
2023/08/10 02:04:23;;;;;;;3.28;2.40;;;12.00;99.90;;;11.67;100.00;97628.75;5029719;28;20732;-37
2023/08/10 02:06:49;;;;;;;2.85;2.35;;;12.00;99.90;;;11.67;100.00;97629.59;5029910;28;20030;-37
2023/08/10 02:09:14;;;;;;;2.88;2.58;;;12.00;99.90;;;11.66;100.00;97633.13;5027538;28;20599;-37
2023/08/10 02:11:40;;;;;;;2.78;2.40;;;12.00;99.90;;;11.65;100.00;97629.66;5028872;28;20263;-37
2023/08/10 02:14:06;;;;;;;2.80;2.58;;;12.00;99.90;;;11.64;100.00;97634.97;5028305;28;20040;-37
2023/08/10 02:16:31;;;;;;;3.15;2.60;;;12.00;99.90;;;11.64;100.00;97627.91;5026860;28;20516;-37
2023/08/10 02:18:57;;;;;;;2.80;2.50;;;12.00;99.90;;;11.59;100.00;97611.41;5033956;28;20596;-37
2023/08/10 02:21:23;;;;;;;2.97;2.67;;;12.00;99.90;;;11.64;100.00;97624.41;5027535;28;20052;-37
2023/08/10 02:23:53;;;;;;;3.97;2.58;;;12.00;99.90;;;11.64;100.00;97619.13;5031243;28;20025;-37
2023/08/10 02:26:19;;;;;;;4.38;2.53;;;12.00;99.90;;;11.61;100.00;97624.53;5036835;28;20218;-37
2023/08/10 02:28:44;;;;;;;3.15;2.70;;;12.00;99.90;;;11.63;100.00;97623.56;5033756;28;20211;-40
2023/08/10 02:31:10;;;;;;;4.05;2.90;;;12.00;99.90;;;11.62;100.00;97627.13;5031865;28;20469;-37
2023/08/10 02:33:36;;;;;;;3.67;2.55;;;12.00;99.90;;;11.63;100.00;97628.00;5037272;28;20025;-38
2023/08/10 02:36:02;;;;;;;4.35;2.75;;;12.00;99.90;;;11.62;100.00;97627.13;5030463;28;20527;-37
2023/08/10 02:38:27;;;;;;;2.85;2.60;;;12.00;99.90;;;11.63;100.00;97631.50;5026999;28;20036;-37
2023/08/10 02:40:53;;;;;;;3.90;2.70;;;12.00;99.90;;;11.65;100.00;97626.16;5031323;28;20235;-37
2023/08/10 02:43:19;;;;;;;5.72;2.70;;;12.00;99.90;;;11.67;100.00;97629.59;5025596;28;20086;-37
2023/08/10 02:45:44;;;;;;;2.50;2.30;;;12.00;99.90;;;11.66;100.00;97627.84;5034534;28;20032;-37
2023/08/10 02:48:10;;;;;;;3.75;2.63;;;12.00;99.90;;;11.70;100.00;97636.53;5027439;28;20025;-37
2023/08/10 02:50:36;;;;;;;2.83;2.30;;;12.00;99.90;;;11.63;100.00;97623.56;5032038;28;20370;-37
2023/08/10 02:53:02;;;;;;;5.40;2.88;;;12.10;99.90;;;11.68;100.00;97631.31;5028696;28;20067;-37
2023/08/10 02:55:28;;;;;;;3.20;2.90;;;12.00;99.90;;;11.67;100.00;97629.59;5027751;28;20116;-37
2023/08/10 02:57:53;;;;;;;4.63;2.80;;;12.00;99.90;;;11.68;100.00;97631.31;5029384;28;20045;-37
2023/08/10 03:00:20;;;;;;;3.42;2.60;;;12.00;99.90;;;11.66;100.00;97638.44;5026125;28;20515;-37
2023/08/10 03:02:50;;;;;;;6.47;2.60;;;12.00;99.90;;;11.66;100.00;97638.44;5026762;28;20025;-37
2023/08/10 03:05:18;;;;;;;3.20;2.63;;;12.00;99.90;;;11.65;100.00;97644.66;5033249;28;20358;-37
2023/08/10 03:07:45;;;;;;;5.78;2.42;;;12.00;99.90;;;11.67;100.00;97648.09;5036080;28;20489;-37
2023/08/10 03:10:11;;;;;;;3.38;2.45;;;12.00;99.90;;;11.67;100.00;97644.59;5038640;28;20488;-37
2023/08/10 03:12:37;;;;;;;2.90;2.60;;;12.00;99.90;;;11.68;100.00;97641.00;5030898;28;20489;-37
2023/08/10 03:15:08;;;;;;;3.55;3.13;;;12.00;99.90;;;11.68;100.00;97638.38;5036457;28;20436;-37
2023/08/10 03:17:34;;;;;;;3.50;2.72;;;12.00;99.90;;;11.67;100.00;97634.88;5032287;28;20099;-37
2023/08/10 03:20:00;;;;;;;3.28;2.72;;;12.00;99.90;;;11.60;100.00;97628.94;5037939;28;20032;-37
2023/08/10 03:22:27;;;;;;;3.70;3.38;;;12.00;99.90;;;11.68;100.00;97635.72;5033819;28;20033;-37
2023/08/10 03:24:53;;;;;;;3.78;3.38;;;12.00;99.90;;;11.71;100.00;97635.63;5038805;28;20485;-37
2023/08/10 03:27:19;;;;;;;3.33;2.90;;;12.00;99.90;;;11.73;100.00;97636.44;5033503;28;20098;-37
2023/08/10 03:29:45;;;;;;;3.15;2.80;;;12.10;99.90;;;11.75;100.00;97631.94;5037459;28;20021;-37
2023/08/10 03:32:10;;;;;;;3.70;3.00;;;12.10;99.90;;;11.78;100.00;97627.41;5035554;28;20029;-37
2023/08/10 03:34:36;;;;;;;4.18;3.13;;;12.10;99.90;;;11.69;100.00;97614.53;5036322;28;20316;-37
2023/08/10 03:37:03;;;;;;;3.58;3.28;;;12.10;99.90;;;11.76;100.00;97629.25;5037703;28;20416;-37
2023/08/10 03:39:29;;;;;;;3.95;3.22;;;12.10;99.90;;;11.77;100.00;97630.09;5033565;28;20481;-37
2023/08/10 03:41:54;;;;;;;3.70;3.15;;;12.10;99.90;;;11.75;100.00;97629.28;5039509;28;20295;-37
2023/08/10 03:44:20;;;;;;;4.95;3.40;;;12.10;99.90;;;11.72;100.00;97640.84;5031350;28;20314;-37
2023/08/10 03:46:46;;;;;;;6.22;3.13;;;12.10;99.90;;;11.71;100.00;97640.91;5034906;28;20009;-37
2023/08/10 03:49:12;;;;;;;3.92;2.92;;;12.10;99.90;;;11.71;100.00;97644.41;5036929;28;20037;-37
2023/08/10 03:51:37;;;;;;;3.75;3.38;;;12.10;99.90;;;11.70;100.00;97647.09;5038808;28;20079;-37
2023/08/10 03:54:03;;;;;;;5.05;3.03;;;12.00;99.90;;;11.64;100.00;97632.34;5038829;28;20037;-37
2023/08/10 03:56:29;;;;;;;4.22;3.60;;;12.00;99.90;;;11.67;100.00;97640.16;5035586;28;20033;-37
2023/08/10 03:58:55;;;;;;;4.43;3.20;;;12.00;99.90;;;11.66;100.00;97643.72;5038911;28;20490;-37
2023/08/10 04:01:22;;;;;;;3.83;3.33;;;12.00;99.90;;;11.64;100.00;97641.13;5033829;28;20041;-37
2023/08/10 04:03:48;;;;;;;3.90;3.15;;;12.00;99.90;;;11.62;100.00;97642.09;5037030;28;20029;-37
2023/08/10 04:06:14;;;;;;;4.28;3.60;;;12.00;99.90;;;11.61;100.00;97643.91;5035926;28;20112;-37
2023/08/10 04:08:40;;;;;;;3.70;3.30;;;12.00;99.90;;;11.56;100.00;97635.28;5036717;28;20163;-37
2023/08/10 04:11:05;;;;;;;4.25;3.30;;;12.00;99.90;;;11.54;100.00;97631.84;5037266;28;20103;-37
2023/08/10 04:13:31;;;;;;;4.82;3.50;;;12.00;99.90;;;11.63;100.00;97641.22;5032588;28;20036;-37
2023/08/10 04:15:57;;;;;;;4.05;3.28;;;12.00;99.90;;;11.56;100.00;97632.63;5036370;28;20419;-37
2023/08/10 04:18:22;;;;;;;3.95;3.20;;;12.00;99.90;;;11.60;100.00;97644.81;5037208;28;20313;-37
2023/08/10 04:20:49;;;;;;;5.63;3.63;;;12.00;99.90;;;11.56;100.00;97643.22;5036599;28;20496;-37
2023/08/10 04:23:15;;;;;;;6.07;3.55;;;12.00;99.90;;;11.61;100.00;97648.28;5031767;28;20071;-37
2023/08/10 04:25:40;;;;;;;4.70;3.80;;;12.00;99.90;;;11.63;100.00;97646.50;5032528;28;20119;-37
2023/08/10 04:28:07;;;;;;;3.90;3.40;;;12.00;99.90;;;11.57;100.00;97638.78;5037449;28;20036;-37
2023/08/10 04:30:32;;;;;;;4.68;3.88;;;12.00;99.90;;;11.64;100.00;97645.56;5034328;28;20039;-37
2023/08/10 04:32:58;;;;;;;3.60;3.30;;;12.00;99.90;;;11.66;100.00;97659.56;5033917;28;20033;-37
2023/08/10 04:35:24;;;;;;;4.50;3.35;;;12.00;99.90;;;11.65;100.00;97658.72;5036262;28;20548;-37
2023/08/10 04:37:53;;;;;;;3.90;3.50;;;12.00;99.90;;;11.63;100.00;97654.41;5032673;28;20059;-37
2023/08/10 04:40:19;;;;;;;3.72;3.25;;;12.00;99.90;;;11.69;100.00;97661.25;5034308;28;20512;-37
2023/08/10 04:42:45;;;;;;;4.72;3.67;;;12.00;99.90;;;11.60;100.00;97650.09;5036581;28;20075;-37
2023/08/10 04:45:11;;;;;;;4.55;3.42;;;12.00;99.90;;;11.73;100.00;97666.34;5028365;28;20029;-37
2023/08/10 04:47:38;;;;;;;4.20;3.72;;;12.10;99.90;;;11.77;100.00;97661.81;5034590;28;20025;-37
2023/08/10 04:50:05;;;;;;;5.07;3.90;;;12.10;99.90;;;11.80;100.00;97657.25;5035233;28;20028;-37
2023/08/10 04:52:31;;;;;;;5.50;3.85;;;12.10;99.90;;;11.83;100.00;97664.22;5033611;28;20507;-36
2023/08/10 04:54:57;;;;;;;4.97;3.83;;;12.20;99.90;;;11.85;100.00;97665.03;5034789;28;20032;-36
2023/08/10 04:57:23;;;;;;;8.32;4.40;;;12.20;99.90;;;11.90;100.00;97671.03;5034643;28;20403;-36
2023/08/10 04:59:48;;;;;;;4.85;4.35;;;12.20;99.90;;;11.94;100.00;97674.44;5034811;28;20052;-36
2023/08/10 05:02:14;;;;;;;8.02;5.07;;;12.30;99.90;;;11.97;100.00;97671.66;5034812;28;20075;-36
2023/08/10 05:04:40;;;;;;;5.85;4.53;;;12.30;99.90;;;12.03;100.00;97671.44;5033520;28;23256;-36
2023/08/10 05:07:06;;;;;;;5.63;4.15;;;12.30;99.90;;;12.08;100.00;97673.88;5032520;28;20021;-36
2023/08/10 05:09:32;;;;;;;6.38;5.00;;;12.40;99.90;;;12.14;100.00;97673.66;5034647;28;20024;-36
2023/08/10 05:11:58;;;;;;;5.05;4.20;;;12.50;99.90;;;12.19;100.00;97671.69;5036143;28;20389;-37
2023/08/10 05:14:23;;;;;;;6.72;4.47;;;12.50;99.90;;;12.23;100.00;97671.50;5031397;28;20026;-36
2023/08/10 05:16:50;;;;;;;7.18;5.32;;;12.60;99.90;;;12.32;100.00;97686.16;5030051;28;20684;-36
2023/08/10 05:19:15;;;;;;;8.57;4.90;;;12.60;99.90;;;12.40;100.00;97675.28;5036371;28;20108;-36
2023/08/10 05:21:41;;;;;;;6.35;5.25;;;12.70;99.90;;;12.47;100.00;97675.88;5033939;28;20644;-36
2023/08/10 05:24:07;;;;;;;8.48;5.38;;;12.80;99.90;;;12.51;100.00;97670.41;5029945;28;20122;-36
2023/08/10 05:26:33;;;;;;;5.60;5.07;;;12.90;99.90;;;12.55;100.00;97663.22;5032032;28;20381;-36
2023/08/10 05:28:58;;;;;;;6.47;5.47;;;12.90;99.90;;;12.66;100.00;97676.88;5031540;28;20472;-36
2023/08/10 05:31:25;;;;;;;10.43;6.57;;;13.00;99.90;;;12.69;100.00;97671.44;5029939;28;20032;-37
2023/08/10 05:33:50;;;;;;;10.07;6.80;;;13.10;99.90;;;12.76;100.00;97677.38;5033250;28;20037;-36
2023/08/10 05:36:16;;;;;;;6.45;5.13;;;13.10;99.90;;;12.89;100.00;97688.28;5030512;28;20036;-36
2023/08/10 05:38:42;;;;;;;6.32;5.43;;;13.20;99.90;;;12.91;100.00;97678.50;5034773;28;20083;-37
2023/08/10 05:41:07;;;;;;;8.57;5.70;;;13.30;99.90;;;13.02;100.00;97680.69;5037412;28;20327;-37
2023/08/10 05:43:33;;;;;;;6.57;5.25;;;13.30;99.90;;;13.09;100.00;97682.16;5034665;28;20147;-36
2023/08/10 05:45:59;;;;;;;6.35;5.38;;;13.40;99.90;;;13.10;100.00;97667.97;5037689;28;20397;-36
2023/08/10 05:48:25;;;;;;;7.43;5.93;;;13.50;99.90;;;13.30;100.00;97696.28;5029207;28;20083;-36
2023/08/10 05:50:50;;;;;;;7.63;6.32;;;13.60;99.90;;;13.42;100.00;97687.81;5039746;28;20064;-37
2023/08/10 05:53:16;;;;;;;8.68;5.95;;;13.80;99.90;;;13.83;100.00;97708.97;5030801;28;20471;-36
2023/08/10 05:55:42;;;;;;;4.72;4.20;;;14.10;99.90;;;14.11;100.00;97705.06;5028955;28;20020;-37
2023/08/10 05:58:08;;;;;;;10.32;7.30;;;14.40;99.90;;;14.25;100.00;97710.59;5029947;28;20029;-37
2023/08/10 06:00:36;;;;;;;6.88;5.68;;;14.70;99.90;;;14.45;100.00;97700.81;5026224;28;20404;-37
2023/08/10 06:03:03;;;;;;;7.22;5.55;;;14.90;99.90;;;14.77;100.00;97711.69;5029663;28;20486;-37
2023/08/10 06:05:32;;;;;;;7.00;5.20;;;15.10;99.90;;;14.92;100.00;97710.09;5029314;28;20040;-37
2023/08/10 06:07:59;;;;;;;6.63;5.07;;;15.20;99.90;;;15.01;100.00;97704.31;5030981;28;20464;-37
2023/08/10 06:10:25;;;;;;;7.35;5.93;;;15.40;99.90;;;15.11;100.00;97707.38;5026448;28;20122;-37
2023/08/10 06:12:52;;;;;;;4.80;4.35;;;15.50;99.90;;;15.20;100.00;97706.88;5028250;28;20519;-37
2023/08/10 06:15:17;;;;;;;8.07;4.15;;;15.50;99.90;;;15.33;100.00;97721.28;5023236;28;20456;-37
2023/08/10 06:17:44;;;;;;;6.13;4.40;;;15.60;99.90;;;15.41;100.00;97712.91;5026222;28;20115;-37
2023/08/10 06:20:13;;;;;;;7.07;5.07;;;15.70;99.90;;;15.38;100.00;97700.66;5039873;28;20044;-37
2023/08/10 06:22:41;;;;;;;5.60;4.03;;;15.80;99.90;;;15.53;100.00;97714.09;5032782;28;20037;-37
2023/08/10 06:25:08;;;;;;;7.70;4.93;;;15.80;99.90;;;15.52;100.00;97723.00;5030266;28;20029;-37
2023/08/10 06:27:35;;;;;;;6.22;4.68;;;15.90;99.90;;;15.56;100.00;97716.56;5028362;28;20107;-37
2023/08/10 06:30:03;;;;;;;4.80;4.30;;;15.90;99.90;;;15.61;100.00;97733.16;5032770;28;20108;-37
2023/08/10 06:32:28;;;;;;;6.68;4.93;;;15.90;99.90;;;15.51;100.00;97735.44;5039550;28;20404;-37
2023/08/10 06:34:55;;;;;;;6.25;4.60;;;15.90;99.90;;;15.63;100.00;97733.91;5019493;28;20500;-37
2023/08/10 06:37:21;;;;;;;5.65;4.07;;;16.00;99.90;;;15.63;100.00;97729.47;5038985;28;20119;-37
2023/08/10 06:39:46;;;;;;;7.90;4.60;;;16.00;99.90;;;15.75;100.00;97730.66;5040016;28;20033;-37
2023/08/10 06:42:12;;;;;;;4.78;3.42;;;16.10;99.90;;;15.87;100.00;97737.13;5036197;28;20242;-37
2023/08/10 06:44:38;;;;;;;7.30;4.10;;;16.20;99.90;;;16.00;100.00;97729.38;5038060;28;20098;-37
2023/08/10 06:47:04;;;;;;;6.40;4.80;;;16.30;99.90;;;16.04;100.00;97714.94;5037060;28;20037;-37
2023/08/10 06:49:30;;;;;;;9.20;4.60;;;16.40;99.90;;;16.03;100.00;97722.06;5040009;28;20025;-37
2023/08/10 06:51:55;;;;;;;8.75;4.35;;;16.50;99.90;;;16.25;100.00;97739.53;5040231;28;20121;-37
2023/08/10 06:54:21;;;;;;;7.55;4.25;;;16.60;99.90;;;16.39;100.00;97742.31;5038406;28;20428;-37
2023/08/10 06:56:47;;;;;;;7.85;4.32;;;16.70;99.90;;;16.46;100.00;97748.16;5038490;28;20087;-37
2023/08/10 06:59:13;;;;;;;9.20;4.70;;;16.80;99.90;;;16.48;100.00;97740.94;5036941;28;20029;-37
2023/08/10 07:01:39;;;;;;;6.65;4.05;;;16.90;99.90;;;16.62;100.00;97748.16;5034115;28;20464;-37
2023/08/10 07:04:05;;;;;;;4.70;3.47;;;16.90;99.90;;;16.75;100.00;97756.31;5039722;28;20048;-37
2023/08/10 07:06:31;;;;;;;6.75;4.30;;;17.00;99.90;;;16.76;100.00;97752.69;5039959;28;20025;-37
2023/08/10 07:08:57;;;;;;;6.32;4.15;;;17.10;99.90;;;16.88;100.00;97754.69;5038150;28;20032;-37
2023/08/10 07:11:22;;;;;;;6.88;4.60;;;17.20;99.90;;;16.85;100.00;97764.66;5039896;28;20087;-37
2023/08/10 07:13:51;;;;;;;6.97;4.25;;;17.20;99.90;;;17.01;100.00;97759.34;5038351;28;20079;-37
2023/08/10 07:16:17;;;;;;;4.75;3.97;;;17.30;99.90;;;17.03;100.00;97752.09;5031657;28;20021;-37
2023/08/10 07:18:43;;;;;;;4.60;3.83;;;17.40;99.90;;;17.13;100.00;97763.97;5034766;28;20047;-37
2023/08/10 07:21:09;;;;;;;6.25;4.13;;;17.40;99.90;;;17.09;100.00;97741.97;5035184;28;20102;-37
2023/08/10 07:23:35;;;;;;;7.00;4.03;;;17.50;99.90;;;17.22;100.00;97747.44;5036862;28;20045;-37
2023/08/10 07:26:00;;;;;;;7.75;4.15;;;17.50;99.90;;;17.23;100.00;97754.50;5040244;28;20116;-37
2023/08/10 07:28:26;;;;;;;4.65;3.22;;;17.60;99.90;;;17.41;100.00;97747.22;5040578;28;20111;-37
2023/08/10 07:30:53;;;;;;;4.28;3.53;;;17.60;99.90;;;17.52;100.00;97751.91;5034411;28;20361;-37
2023/08/10 07:33:19;;;;;;;5.25;3.72;;;17.80;99.90;;;17.58;100.00;97742.69;5040807;28;20064;-37
2023/08/10 07:35:46;;;;;;;5.25;3.53;;;17.90;99.90;;;17.84;100.00;97760.66;5035536;28;20111;-37
2023/08/10 07:38:16;;;;;;;5.18;3.40;;;18.00;99.90;;;17.81;100.00;97744.81;5039546;28;20037;-37
2023/08/10 07:40:42;;;;;;;5.47;3.15;;;18.20;99.90;;;18.02;100.00;97748.03;5036779;28;20029;-37
2023/08/10 07:43:08;;;;;;;4.55;2.80;;;18.30;99.90;;;18.23;100.00;97758.31;5039045;28;20871;-38
2023/08/10 07:45:34;;;;;;;4.30;3.15;;;18.50;99.90;;;18.39;100.00;97761.75;5028849;28;20108;-37
2023/08/10 07:48:00;;;;;;;4.40;2.80;;;18.70;99.90;;;18.59;100.00;97770.31;5031166;28;20120;-37
2023/08/10 07:50:27;;;;;;;4.45;3.33;;;18.80;99.90;;;18.67;100.00;97770.69;5039217;28;20036;-37
2023/08/10 07:52:53;;;;;;;5.28;3.47;;;18.90;99.90;;;18.73;100.00;97783.63;5038773;28;20037;-37
2023/08/10 07:55:19;;;;;;;5.15;3.63;;;18.90;99.90;;;18.74;100.00;97777.34;5037399;28;20106;-37
2023/08/10 07:57:45;;;;;;;4.97;3.17;;;18.90;99.90;;;18.86;100.00;97778.38;5038457;28;20413;-37
2023/08/10 08:00:12;;;;;;;5.55;3.35;;;19.00;99.90;;;18.82;100.00;97774.22;5038420;28;20025;-37
2023/08/10 08:02:38;;;;;;;4.28;2.90;;;19.10;99.90;;;18.89;100.00;97776.38;5038731;28;20025;-37
2023/08/10 08:05:06;;;;;;;5.38;3.60;;;19.10;99.90;;;18.83;100.00;97767.91;5038425;28;20495;-37
2023/08/10 08:07:31;;;;;;;4.40;3.20;;;19.10;99.90;;;18.88;100.00;97785.38;5040328;28;20217;-37
2023/08/10 08:09:58;;;;;;;4.32;3.00;;;19.10;99.90;;;18.92;100.00;97779.84;5035903;28;20755;-37
2023/08/10 08:12:26;;;;;;;3.28;2.85;;;19.10;99.90;;;18.89;100.00;97765.69;5036288;28;20013;-37
2023/08/10 08:14:52;;;;;;;4.43;3.53;;;19.10;99.90;;;18.95;100.00;97783.16;5035952;28;20029;-37
2023/08/10 08:17:19;;;;;;;6.85;3.42;;;19.10;99.90;;;19.06;100.00;97790.47;5032328;28;20033;-37
2023/08/10 08:19:44;;;;;;;3.80;3.20;;;19.20;99.90;;;19.09;100.00;97784.91;5036326;28;20075;-37
2023/08/10 08:22:10;;;;;;;3.95;2.50;;;19.20;99.90;;;19.21;100.00;97783.25;5039262;28;20512;-37
2023/08/10 08:24:36;;;;;;;4.50;3.30;;;19.30;99.90;;;19.19;100.00;97771.81;5036820;28;20187;-37
2023/08/10 08:27:02;;;;;;;4.97;3.15;;;19.40;99.90;;;19.19;100.00;97777.16;5038359;28;20087;-37
2023/08/10 08:29:28;;;;;;;5.30;3.05;;;19.40;99.90;;;19.21;100.00;97783.25;5040603;28;20102;-37
2023/08/10 08:31:53;;;;;;;3.97;2.85;;;19.40;99.90;;;19.27;100.00;97778.38;5034965;28;20567;-37
2023/08/10 08:34:20;;;;;;;4.63;3.25;;;19.40;99.90;;;19.28;100.00;97787.25;5037606;28;20032;-37
2023/08/10 08:36:47;;;;;;;3.97;3.00;;;19.40;99.90;;;19.15;100.00;97781.84;5035669;28;20043;-37
2023/08/10 08:39:13;;;;;;;3.90;3.15;;;19.30;99.90;;;18.94;100.00;97754.72;5036897;28;20060;-37
2023/08/10 08:41:41;;;;;;;4.32;3.10;;;19.20;99.90;;;18.96;100.00;97770.66;5035899;28;20075;-37
2023/08/10 08:44:08;;;;;;;4.00;2.80;;;19.10;99.90;;;18.95;100.00;97771.59;5036362;28;20041;-37
2023/08/10 08:46:41;;;;;;;5.75;3.17;;;19.00;99.90;;;18.87;100.00;97769.44;5033004;28;20025;-37
2023/08/10 08:49:07;;;;;;;4.57;3.40;;;19.00;99.90;;;18.83;100.00;97771.44;5036873;28;20030;-37
2023/08/10 08:51:33;;;;;;;4.22;3.45;;;19.00;99.90;;;18.86;100.00;97776.59;5037327;28;20039;-37
2023/08/10 08:54:02;;;;;;;22.40;18.60;;;19.00;99.90;;;18.93;100.00;97769.00;5037668;28;21165;-37
2023/08/10 08:56:28;;;;;;;5.78;4.78;;;19.00;99.90;;;18.88;100.00;97763.16;5035604;28;20071;-37
2023/08/10 08:58:54;;;;;;;7.00;3.55;;;19.00;99.90;;;18.89;100.00;97772.84;5034894;28;20040;-37
2023/08/10 09:01:21;;;;;;;6.32;3.55;;;19.00;99.90;;;18.91;100.00;97770.09;5034661;28;20029;-37
2023/08/10 09:03:48;;;;;;;3.53;2.88;;;19.00;99.90;;;18.97;100.00;97764.31;5033677;28;20079;-37
2023/08/10 09:06:14;;;;;;;5.13;3.10;;;19.10;99.90;;;19.01;100.00;97764.03;5037904;28;20079;-37
2023/08/10 09:08:41;;;;;;;4.00;2.85;;;19.10;99.90;;;19.05;100.00;97767.38;5035846;28;20021;-37
2023/08/10 09:11:07;;;;;;;7.28;3.30;;;19.10;99.90;;;19.01;100.00;97768.53;5036497;28;20072;-37
2023/08/10 09:13:33;;;;;;;6.22;2.78;;;19.10;99.90;;;19.03;100.00;97755.94;5035067;28;20555;-37
2023/08/10 09:16:14;;;;;;;4.93;3.15;;;19.20;99.90;;;19.11;100.00;97758.94;5029365;28;20036;-37
2023/08/10 09:18:43;;;;;;;5.57;2.72;;;19.30;99.90;;;19.21;100.00;97753.84;5035991;28;20032;-37
2023/08/10 09:21:18;;;;;;;3.88;2.97;;;19.30;99.90;;;19.30;100.00;97752.38;5038572;28;20029;-37
2023/08/10 09:23:53;;;;;;;6.55;3.00;;;19.40;99.90;;;19.33;100.00;97739.66;5037208;28;20039;-37
2023/08/10 09:26:21;;;;;;;4.35;3.00;;;19.50;99.90;;;19.43;100.00;97738.09;5035241;28;20436;-37
2023/08/10 09:28:48;;;;;;;4.22;2.40;;;19.60;99.90;;;19.52;100.00;97741.94;5035115;28;20080;-37
2023/08/10 09:31:24;;;;;;;4.05;3.05;;;19.60;99.90;;;19.54;100.00;97741.84;5035321;28;20025;-37
2023/08/10 09:33:55;;;;;;;4.32;2.80;;;19.70;99.90;;;19.60;100.00;97736.94;5032824;28;20372;-37
2023/08/10 09:36:27;;;;;;;3.60;2.47;;;19.70;99.90;;;19.64;100.00;97735.75;5037551;28;20115;-37
2023/08/10 09:38:54;;;;;;;4.65;2.53;;;19.70;99.90;;;19.72;100.00;97731.69;5035505;28;20024;-37
2023/08/10 09:41:22;;;;;;;3.25;2.53;;;19.80;99.90;;;19.79;100.00;97735.69;5037241;28;20095;-37
2023/08/10 09:43:49;;;;;;;2.80;2.42;;;19.90;99.90;;;19.87;100.00;97733.38;5034663;28;20035;-37
2023/08/10 09:46:16;;;;;;;5.38;2.83;;;20.00;99.90;;;19.88;100.00;97727.03;5028726;28;20106;-37
2023/08/10 09:48:52;;;;;;;4.97;3.00;;;20.00;99.90;;;19.96;100.00;97738.06;5036167;28;20021;-37
2023/08/10 09:51:18;;;;;;;4.85;2.80;;;20.10;99.90;;;20.09;100.00;97740.75;5036408;28;20044;-37
2023/08/10 09:53:44;;;;;;;4.13;3.20;;;20.20;99.90;;;20.12;100.00;97732.50;5036879;28;20036;-37
2023/08/10 09:56:10;;;;;;;5.18;3.17;;;20.30;99.90;;;20.14;100.00;97737.75;5036836;28;20032;-37
2023/08/10 09:58:38;;;;;;;3.88;2.47;;;20.30;99.90;;;20.22;100.00;97719.31;5038580;28;20444;-37
2023/08/10 10:01:06;;;;;;;3.33;2.50;;;20.40;99.90;;;20.39;100.00;97727.00;5035084;28;20111;-37
2023/08/10 10:03:33;;;;;;;6.10;3.15;;;20.50;99.90;;;20.49;100.00;97724.50;5033580;28;20428;-37
2023/08/10 10:06:00;;;;;;;5.97;3.50;;;20.60;99.90;;;20.47;100.00;97722.91;5034659;28;20021;-37
2023/08/10 10:08:27;;;;;;;6.75;3.38;;;20.60;99.90;;;20.45;100.00;97725.69;5037054;28;20095;-37
2023/08/10 10:10:59;;;;;;;3.67;2.85;;;20.60;99.90;;;20.57;100.00;97722.13;5035958;28;20035;-37